Lack, Pennsylvania
Current Conditions -  °F | °C
As of 3:53 PM on Friday 24 Oct 2014 (Local Time) from KAOO Reporting Station
Clear Clear  
Wind Chill: 56°   Ceiling: Unl
Heat Index: 56°   Visibility: 10mi
Dew Point: 36°   Wind: 16mph
Humidity: 47%   Direction: 310°NW
Pressure: 29.96"   Gusts: NA
Location:  40.2561°N, 77.7747°W
Report Text: KAOO 241953Z AUTO 31014KT 10SM CLR 13/02 A2996 RMK AO2 SLP148 T01330022
Loading
Personal Weather Stations






























Interactive Weather Map
Tropical Storm Tracking
New forecast layout! Learn more

10-Day Weather Forecast

Advertisements
Track Severe Weather on mobile